createdAt,value
2017-12-11T00:00:41.017Z,17.10
2017-12-11T00:03:11.479Z,18.37
2017-12-11T00:05:41.993Z,17.50
2017-12-11T00:08:12.421Z,16.53
2017-12-11T00:10:42.900Z,18.13
2017-12-11T00:13:14.176Z,17.00
2017-12-11T00:15:44.653Z,17.20
2017-12-11T00:18:15.443Z,19.30
2017-12-11T00:20:45.930Z,16.23
2017-12-11T00:23:16.378Z,18.67
2017-12-11T00:25:47.616Z,21.10
2017-12-11T00:28:18.861Z,19.57
2017-12-11T00:30:50.105Z,21.57
2017-12-11T00:33:21.326Z,19.67
2017-12-11T00:35:51.788Z,19.60
2017-12-11T00:38:23.060Z,20.03
2017-12-11T00:40:53.553Z,18.97
2017-12-11T00:43:25.237Z,19.17
2017-12-11T00:45:55.721Z,20.00
2017-12-11T00:48:26.344Z,16.80
2017-12-11T00:50:56.826Z,16.43
2017-12-11T00:53:27.281Z,18.47
2017-12-11T00:55:57.746Z,18.33
2017-12-11T00:58:28.996Z,17.30
2017-12-11T01:01:00.757Z,19.03
2017-12-11T01:03:31.976Z,19.50
2017-12-11T01:06:02.425Z,19.63
2017-12-11T01:08:33.676Z,18.17
2017-12-11T01:11:04.922Z,17.50
2017-12-11T01:13:36.589Z,19.30
2017-12-11T01:16:07.058Z,18.63
2017-12-11T01:18:37.837Z,19.13
2017-12-11T01:21:09.077Z,18.47
2017-12-11T01:23:40.634Z,18.00
2017-12-11T01:26:11.106Z,17.40
2017-12-11T01:28:41.574Z,18.30
2017-12-11T01:31:12.290Z,15.03
2017-12-11T01:33:42.776Z,16.13
2017-12-11T01:36:14.199Z,16.00
2017-12-11T01:38:45.431Z,16.90
2017-12-11T01:41:15.905Z,15.70
2017-12-11T01:43:46.393Z,15.97
2017-12-11T01:46:16.925Z,15.30
2017-12-11T01:48:48.828Z,15.40
2017-12-11T01:51:19.301Z,15.37
2017-12-11T01:53:49.802Z,15.20
2017-12-11T01:56:20.280Z,13.90
2017-12-11T01:58:51.479Z,13.10
2017-12-11T02:01:22.430Z,15.40
2017-12-11T02:03:53.237Z,12.40
2017-12-11T02:06:23.880Z,12.50
2017-12-11T02:08:54.319Z,13.30
2017-12-11T02:11:24.797Z,11.93
2017-12-11T02:13:55.275Z,14.10
2017-12-11T02:16:25.761Z,12.03
2017-12-11T02:18:56.678Z,13.50
2017-12-11T02:21:27.943Z,12.20
2017-12-11T02:23:59.191Z,13.50
2017-12-11T02:26:29.704Z,13.63
2017-12-11T02:29:00.936Z,13.77
2017-12-11T02:31:32.515Z,12.80
2017-12-11T02:34:02.958Z,13.20
2017-12-11T02:36:33.703Z,13.20
2017-12-11T02:39:04.456Z,13.37
2017-12-11T02:41:34.925Z,12.90
2017-12-11T02:44:06.166Z,13.63
2017-12-11T02:46:37.428Z,13.20
2017-12-11T02:49:08.232Z,12.53
2017-12-11T02:51:38.704Z,12.57
2017-12-11T02:54:09.168Z,11.60
2017-12-11T02:56:39.640Z,12.23
2017-12-11T02:59:10.423Z,12.90
2017-12-11T03:01:41.262Z,12.87
2017-12-11T03:04:11.781Z,13.07
2017-12-11T03:06:42.389Z,12.30
2017-12-11T03:09:12.831Z,13.27
2017-12-11T03:11:43.354Z,11.80
2017-12-11T03:14:13.802Z,11.03
2017-12-11T03:16:44.278Z,12.47
2017-12-11T03:19:15.528Z,11.20
2017-12-11T03:21:46.002Z,12.53
2017-12-11T03:24:16.487Z,10.90
2017-12-11T03:26:46.969Z,13.10
2017-12-11T03:29:17.407Z,13.23
2017-12-11T03:31:48.177Z,12.50
2017-12-11T03:34:18.627Z,11.90
2017-12-11T03:36:49.501Z,12.27
2017-12-11T03:39:19.931Z,11.63
2017-12-11T03:41:50.413Z,13.30
2017-12-11T03:44:20.903Z,13.10
2017-12-11T03:46:52.160Z,13.23
2017-12-11T03:49:22.842Z,10.50
2017-12-11T03:51:53.303Z,11.80
2017-12-11T03:54:24.928Z,12.50
2017-12-11T03:56:55.419Z,12.00
2017-12-11T03:59:25.884Z,12.00
2017-12-11T04:01:56.349Z,12.03
2017-12-11T04:04:27.588Z,12.20
2017-12-11T04:06:59.765Z,12.23
2017-12-11T04:09:32.166Z,12.63
2017-12-11T04:12:02.637Z,12.43
2017-12-11T04:14:33.114Z,12.37
2017-12-11T04:17:03.614Z,11.60
2017-12-11T04:19:35.203Z,10.90
2017-12-11T04:22:05.682Z,10.70
2017-12-11T04:24:37.111Z,11.00
2017-12-11T04:27:07.652Z,11.67
2017-12-11T04:29:38.105Z,9.83
2017-12-11T04:32:09.325Z,10.73
2017-12-11T04:34:39.771Z,13.03
2017-12-11T04:37:11.302Z,12.50
2017-12-11T04:39:41.733Z,10.80
2017-12-11T04:42:13.104Z,11.53
2017-12-11T04:44:44.340Z,11.70
2017-12-11T04:47:15.563Z,11.27
2017-12-11T04:49:46.446Z,11.93
2017-12-11T04:52:17.730Z,12.80
2017-12-11T04:54:48.678Z,12.87
2017-12-11T04:57:19.117Z,12.80
2017-12-11T04:59:49.583Z,12.00
2017-12-11T05:02:20.835Z,13.90
2017-12-11T05:04:51.285Z,14.60
2017-12-11T05:07:22.073Z,14.20
2017-12-11T05:09:53.326Z,13.40
2017-12-11T05:12:25.593Z,13.90
2017-12-11T05:14:57.607Z,12.30
2017-12-11T05:17:28.059Z,13.70
2017-12-11T05:19:58.518Z,14.00
2017-12-11T05:22:29.762Z,13.97
2017-12-11T05:25:01.383Z,14.07
2017-12-11T05:27:31.858Z,15.03
2017-12-11T05:30:02.314Z,14.57
2017-12-11T05:32:32.760Z,13.57
2017-12-11T05:35:03.233Z,14.57
2017-12-11T05:37:35.524Z,14.43
2017-12-11T05:40:05.991Z,14.13
2017-12-11T05:42:36.482Z,14.13
2017-12-11T05:45:06.950Z,14.90
2017-12-11T05:47:37.423Z,14.57
2017-12-11T05:50:07.982Z,13.80
2017-12-11T05:52:38.422Z,13.30
2017-12-11T05:55:09.333Z,13.50
2017-12-11T05:57:39.786Z,13.47
2017-12-11T06:00:10.288Z,12.53
2017-12-11T06:02:40.727Z,13.60
2017-12-11T06:05:11.194Z,13.10
2017-12-11T06:07:42.050Z,14.07
2017-12-11T06:10:13.262Z,13.20
2017-12-11T06:12:44.101Z,14.53
2017-12-11T06:15:14.560Z,13.90
2017-12-11T06:17:45.807Z,15.43
2017-12-11T06:20:17.038Z,14.00
2017-12-11T06:22:48.285Z,13.90
2017-12-11T06:25:19.712Z,13.80
2017-12-11T06:27:50.201Z,13.87
2017-12-11T06:30:20.656Z,14.67
2017-12-11T06:32:51.468Z,13.63
2017-12-11T06:35:21.906Z,14.43
2017-12-11T06:37:52.653Z,14.30
2017-12-11T06:40:23.102Z,15.07
2017-12-11T06:42:53.826Z,15.30
2017-12-11T06:45:24.280Z,12.40
2017-12-11T06:47:55.526Z,13.50
2017-12-11T06:50:26.762Z,14.00
2017-12-11T06:52:58.051Z,13.47
2017-12-11T06:55:28.776Z,13.67
2017-12-11T06:57:59.260Z,14.00
2017-12-11T07:00:29.725Z,13.60
2017-12-11T07:03:00.161Z,15.10
2017-12-11T07:05:30.630Z,14.50
2017-12-11T07:08:01.095Z,13.00
2017-12-11T07:10:31.510Z,13.93
2017-12-11T07:13:03.139Z,14.27
2017-12-11T07:15:33.574Z,13.67
2017-12-11T07:18:04.032Z,12.77
2017-12-11T07:20:35.245Z,13.13
2017-12-11T07:23:05.737Z,12.83
2017-12-11T07:25:36.386Z,14.60
2017-12-11T07:28:06.855Z,12.43
2017-12-11T07:30:38.081Z,14.13
2017-12-11T07:33:08.536Z,13.20
2017-12-11T07:35:39.023Z,13.80
2017-12-11T07:38:09.528Z,13.23
2017-12-11T07:40:39.968Z,13.23
2017-12-11T07:43:10.650Z,13.67
2017-12-11T07:45:41.863Z,14.13
2017-12-11T07:48:12.313Z,14.37
2017-12-11T07:50:43.546Z,14.17
2017-12-11T07:53:13.994Z,14.03
2017-12-11T07:55:45.206Z,14.10
2017-12-11T07:58:15.646Z,14.37
2017-12-11T08:00:47.069Z,13.73
2017-12-11T08:03:17.552Z,13.20
2017-12-11T08:05:48.785Z,14.57
2017-12-11T08:08:20.029Z,14.53
2017-12-11T08:10:51.266Z,13.73
2017-12-11T08:13:22.742Z,14.40
2017-12-11T08:15:53.205Z,15.13
2017-12-11T08:18:23.680Z,13.13
2017-12-11T08:20:54.902Z,13.60
2017-12-11T08:23:25.337Z,13.50
2017-12-11T08:25:55.984Z,13.80
2017-12-11T08:28:27.228Z,14.37
2017-12-11T08:30:58.609Z,14.60
2017-12-11T08:33:29.109Z,13.40
2017-12-11T08:36:00.357Z,14.70
2017-12-11T08:38:31.596Z,13.20
2017-12-11T08:41:02.843Z,13.77
2017-12-11T08:43:34.319Z,15.20
2017-12-11T08:46:04.786Z,14.10
2017-12-11T08:48:35.206Z,14.57
2017-12-11T08:51:05.650Z,13.50
2017-12-11T08:53:36.121Z,13.40
2017-12-11T08:56:06.574Z,14.03
2017-12-11T08:58:37.049Z,13.90
2017-12-11T09:01:07.700Z,14.77
2017-12-11T09:03:38.923Z,14.80
2017-12-11T09:06:09.343Z,14.40
2017-12-11T09:08:39.812Z,15.27
2017-12-11T09:11:10.288Z,14.43
2017-12-11T09:13:41.016Z,14.73
2017-12-11T09:16:11.480Z,15.27
2017-12-11T09:18:42.860Z,15.93
2017-12-11T09:21:13.320Z,15.90
2017-12-11T09:23:43.780Z,14.43
2017-12-11T09:26:15.498Z,15.17
2017-12-11T09:28:46.020Z,14.10
2017-12-11T09:31:16.608Z,14.57
2017-12-11T09:33:48.006Z,13.87
2017-12-11T09:36:18.478Z,14.03
2017-12-11T09:38:49.722Z,14.10
2017-12-11T09:41:20.938Z,14.60
2017-12-11T09:43:51.650Z,14.63
2017-12-11T09:46:22.136Z,13.80
2017-12-11T09:48:53.602Z,14.10
2017-12-11T09:51:24.062Z,14.10
2017-12-11T09:53:54.539Z,14.70
2017-12-11T09:56:25.834Z,13.47
2017-12-11T09:58:56.301Z,13.80
2017-12-11T10:01:27.779Z,13.40
2017-12-11T10:03:58.241Z,14.30
2017-12-11T10:06:28.707Z,15.30
2017-12-11T10:09:00.267Z,12.87
2017-12-11T10:11:31.505Z,13.47
2017-12-11T10:14:03.351Z,13.80
2017-12-11T10:16:33.798Z,14.03
2017-12-11T10:19:05.326Z,12.90
2017-12-11T10:21:35.758Z,14.90
2017-12-11T10:24:06.293Z,13.93
2017-12-11T10:26:38.029Z,13.20
2017-12-11T10:29:08.465Z,14.30
2017-12-11T10:31:39.158Z,13.40
2017-12-11T10:34:09.632Z,12.90
2017-12-11T10:36:40.091Z,14.00
2017-12-11T10:39:10.560Z,13.80
2017-12-11T10:41:41.013Z,13.93
2017-12-11T10:44:11.482Z,12.70
2017-12-11T10:46:42.245Z,13.17
2017-12-11T10:49:13.137Z,13.40
2017-12-11T10:51:44.321Z,12.90
2017-12-11T10:54:14.803Z,14.40
2017-12-11T10:56:46.134Z,12.90
2017-12-11T10:59:16.593Z,12.13
2017-12-11T11:01:48.038Z,12.40
2017-12-11T11:04:19.248Z,13.20
2017-12-11T11:06:49.680Z,12.30
2017-12-11T11:09:20.131Z,13.50
2017-12-11T11:11:51.373Z,13.17
2017-12-11T11:14:22.545Z,13.17
2017-12-11T11:16:53.020Z,12.13
2017-12-11T11:19:23.848Z,13.30
2017-12-11T11:21:54.512Z,12.67
2017-12-11T11:24:25.751Z,14.53
2017-12-11T11:26:56.199Z,12.57
2017-12-11T11:29:26.724Z,13.10
2017-12-11T11:31:58.246Z,13.10
2017-12-11T11:34:28.759Z,13.07
2017-12-11T11:36:59.460Z,13.17
2017-12-11T11:39:29.975Z,14.47
2017-12-11T11:42:01.322Z,13.60
2017-12-11T11:44:31.811Z,13.20
2017-12-11T11:47:02.294Z,13.60
2017-12-11T11:49:32.854Z,13.40
2017-12-11T11:52:03.304Z,14.07
2017-12-11T11:54:33.793Z,14.57
2017-12-11T11:57:04.250Z,14.30
2017-12-11T11:59:34.738Z,15.60
2017-12-11T12:02:05.327Z,14.57
2017-12-11T12:04:36.614Z,19.17
2017-12-11T12:07:08.681Z,17.23
2017-12-11T12:09:39.170Z,14.23
2017-12-11T12:12:10.465Z,14.33
2017-12-11T12:14:40.922Z,14.80
2017-12-11T12:17:11.572Z,15.07
2017-12-11T12:19:43.222Z,26.23
2017-12-11T12:22:13.685Z,15.97
2017-12-11T12:24:45.048Z,15.17
2017-12-11T12:27:15.535Z,17.03
2017-12-11T12:29:46.815Z,15.63
2017-12-11T12:32:17.480Z,16.40
2017-12-11T12:34:47.983Z,16.10
2017-12-11T12:37:18.614Z,16.60
2017-12-11T12:39:49.075Z,16.13
2017-12-11T12:42:19.494Z,17.63
2017-12-11T12:44:49.959Z,16.03
2017-12-11T12:47:21.187Z,17.43
2017-12-11T12:49:51.638Z,16.83
2017-12-11T12:52:22.859Z,16.17
2017-12-11T12:54:53.541Z,16.97
2017-12-11T12:57:24.064Z,16.27
2017-12-11T12:59:54.568Z,17.50
2017-12-11T13:02:25.807Z,18.27
2017-12-11T13:04:57.085Z,18.97
2017-12-11T13:07:27.634Z,17.07
2017-12-11T13:09:58.090Z,16.10
2017-12-11T13:12:28.544Z,17.70
2017-12-11T13:14:59.784Z,18.30
2017-12-11T13:17:31.014Z,19.27
2017-12-11T13:20:01.698Z,17.20
2017-12-11T13:22:32.115Z,18.17
2017-12-11T13:25:02.567Z,17.57
2017-12-11T13:27:33.002Z,18.80
2017-12-11T13:30:03.488Z,18.50
2017-12-11T13:32:33.943Z,16.40
2017-12-11T13:35:04.403Z,18.50
2017-12-11T13:37:35.004Z,19.10
2017-12-11T13:40:05.501Z,19.30
2017-12-11T13:42:36.286Z,23.10
2017-12-11T13:45:07.014Z,23.20
2017-12-11T13:47:37.490Z,22.70
2017-12-11T13:50:09.223Z,23.10
2017-12-11T13:52:39.791Z,22.67
2017-12-11T13:55:10.704Z,22.30
2017-12-11T13:57:41.951Z,23.40
2017-12-11T14:00:13.199Z,23.00
2017-12-11T14:02:44.468Z,22.93
2017-12-11T14:05:14.972Z,24.97
2017-12-11T14:07:46.407Z,24.53
2017-12-11T14:10:16.977Z,25.60
2017-12-11T14:12:47.449Z,25.20
2017-12-11T14:15:17.919Z,24.20
2017-12-11T14:17:49.158Z,24.10
2017-12-11T14:20:20.457Z,21.50
2017-12-11T14:22:50.929Z,23.07
2017-12-11T14:25:22.342Z,23.13
2017-12-11T14:27:53.606Z,23.60
2017-12-11T14:30:24.086Z,22.27
2017-12-11T14:32:54.540Z,21.13
2017-12-11T14:35:25.006Z,21.60
2017-12-11T14:37:56.424Z,21.20
2017-12-11T14:40:26.919Z,22.13
2017-12-11T14:42:57.513Z,21.87
2017-12-11T14:45:28.779Z,20.20
2017-12-11T14:47:59.234Z,22.20
2017-12-11T14:50:29.715Z,21.50
2017-12-11T14:53:00.972Z,20.10
2017-12-11T14:55:32.525Z,22.23
2017-12-11T14:58:03.762Z,20.33
2017-12-11T15:00:35.010Z,20.63
2017-12-11T15:03:06.254Z,21.73
2017-12-11T15:05:37.493Z,20.73
2017-12-11T15:08:09.170Z,19.27
2017-12-11T15:10:40.407Z,19.00
2017-12-11T15:13:11.716Z,19.20
2017-12-11T15:15:42.175Z,19.40
2017-12-11T15:18:13.402Z,19.53
2017-12-11T15:20:43.877Z,19.37
2017-12-11T15:23:14.402Z,19.67
2017-12-11T15:25:45.013Z,18.50
2017-12-11T15:28:16.514Z,18.73
2017-12-11T15:30:47.283Z,19.73
2017-12-11T15:33:18.546Z,19.20
2017-12-11T15:35:49.824Z,17.27
2017-12-11T15:38:20.313Z,20.07
2017-12-11T15:40:51.564Z,19.63
2017-12-11T15:43:22.955Z,18.90
2017-12-11T15:45:53.589Z,20.13
2017-12-11T15:48:24.158Z,18.40
2017-12-11T15:50:54.626Z,20.27
2017-12-11T15:53:25.141Z,20.37
2017-12-11T15:55:55.828Z,19.87
2017-12-11T15:58:26.248Z,19.50
2017-12-11T16:00:56.778Z,20.20
2017-12-11T16:03:27.269Z,20.83
2017-12-11T16:05:57.718Z,20.90
2017-12-11T16:08:28.160Z,19.57
2017-12-11T16:10:58.616Z,20.80
2017-12-11T16:13:29.169Z,21.00
2017-12-11T16:15:59.738Z,21.27
2017-12-11T16:18:30.224Z,21.00
2017-12-11T16:21:01.458Z,21.00
2017-12-11T16:23:32.682Z,21.87
2017-12-11T16:26:03.434Z,20.10
2017-12-11T16:28:34.661Z,20.90
2017-12-11T16:31:05.426Z,22.40
2017-12-11T16:33:36.643Z,22.80
2017-12-11T16:36:07.085Z,20.47
2017-12-11T16:38:38.339Z,21.73
2017-12-11T16:41:09.581Z,20.97
2017-12-11T16:43:41.152Z,20.50
2017-12-11T16:46:11.656Z,22.03
2017-12-11T16:48:42.871Z,21.63
2017-12-11T16:51:13.314Z,22.17
2017-12-11T16:53:43.777Z,21.40
2017-12-11T16:56:14.575Z,20.97
2017-12-11T16:58:45.022Z,22.97
2017-12-11T17:01:16.638Z,21.63
2017-12-11T17:03:47.071Z,21.80
2017-12-11T17:06:18.274Z,20.93
2017-12-11T17:08:48.691Z,20.60
2017-12-11T17:11:19.103Z,20.37
2017-12-11T17:13:50.554Z,21.20
2017-12-11T17:16:21.782Z,20.77
2017-12-11T17:18:52.174Z,20.63
2017-12-11T17:21:22.598Z,20.87
2017-12-11T17:23:53.014Z,21.80
2017-12-11T17:26:23.890Z,21.50
2017-12-11T17:28:54.346Z,21.97
2017-12-11T17:31:26.026Z,20.60
2017-12-11T17:33:56.497Z,21.37
2017-12-11T17:36:26.909Z,20.90
2017-12-11T17:38:57.323Z,20.70
2017-12-11T17:41:27.706Z,22.47
2017-12-11T17:43:59.218Z,22.00
2017-12-11T17:46:29.622Z,22.53
2017-12-11T17:49:00.966Z,22.30
2017-12-11T17:51:31.428Z,23.13
2017-12-11T17:54:01.815Z,22.47
2017-12-11T17:56:32.247Z,21.63
2017-12-11T17:59:02.701Z,21.30
2017-12-11T18:01:33.384Z,23.83
2017-12-11T18:04:03.838Z,21.10
2017-12-11T18:06:34.329Z,20.97
2017-12-11T18:09:05.824Z,21.73
2017-12-11T18:11:36.303Z,22.53
2017-12-11T18:14:08.042Z,24.03
2017-12-11T18:16:38.509Z,20.87
2017-12-11T18:19:09.216Z,22.60
2017-12-11T18:21:40.465Z,21.27
2017-12-11T18:24:11.701Z,21.70
2017-12-11T18:26:42.150Z,20.90
2017-12-11T18:29:13.344Z,20.63
2017-12-11T18:31:44.122Z,21.20
2017-12-11T18:34:15.298Z,21.00
2017-12-11T18:36:45.812Z,19.93
2017-12-11T18:39:16.256Z,22.30
2017-12-11T18:41:46.770Z,20.30
2017-12-11T18:44:17.539Z,21.80
2017-12-11T18:46:47.988Z,20.50
2017-12-11T18:49:18.873Z,20.10
2017-12-11T18:51:49.383Z,20.60
2017-12-11T18:54:20.596Z,19.23
2017-12-11T18:56:51.094Z,19.97
2017-12-11T18:59:21.565Z,21.67
2017-12-11T19:01:53.022Z,20.77
2017-12-11T19:04:24.244Z,20.23
2017-12-11T19:06:54.725Z,20.63
2017-12-11T19:09:25.162Z,22.00
2017-12-11T19:11:55.663Z,21.00
2017-12-11T19:14:26.190Z,20.77
2017-12-11T19:16:57.414Z,22.00
2017-12-11T19:19:28.016Z,21.47
2017-12-11T19:21:58.489Z,20.27
2017-12-11T19:24:29.746Z,22.73
2017-12-11T19:27:00.197Z,20.67
2017-12-11T19:29:30.689Z,21.03
2017-12-11T19:32:02.316Z,20.97
2017-12-11T19:34:32.774Z,22.10
2017-12-11T19:37:04.221Z,20.67
2017-12-11T19:39:35.492Z,20.80
2017-12-11T19:42:05.936Z,21.77
2017-12-11T19:44:36.378Z,20.40
2017-12-11T19:47:06.883Z,23.23
2017-12-11T19:49:37.645Z,21.03
2017-12-11T19:52:08.079Z,20.50
2017-12-11T19:54:38.513Z,20.33
2017-12-11T19:57:08.958Z,22.30
2017-12-11T19:59:40.212Z,20.80
2017-12-11T20:02:11.689Z,22.83
2017-12-11T20:04:42.146Z,21.90
2017-12-11T20:07:13.011Z,21.17
2017-12-11T20:09:43.474Z,20.97
2017-12-11T20:12:13.924Z,21.83
2017-12-11T20:14:44.386Z,23.30
2017-12-11T20:17:14.855Z,22.47
2017-12-11T20:19:45.510Z,21.97
2017-12-11T20:22:16.025Z,22.50
2017-12-11T20:24:46.483Z,20.83
2017-12-11T20:27:16.935Z,22.50
2017-12-11T20:29:47.424Z,21.27
2017-12-11T20:32:17.908Z,22.73
2017-12-11T20:34:49.107Z,21.80
2017-12-11T20:37:19.980Z,22.80
2017-12-11T20:39:51.177Z,23.23
2017-12-11T20:42:21.626Z,22.10
2017-12-11T20:44:52.082Z,21.70
2017-12-11T20:47:23.369Z,22.47
2017-12-11T20:49:54.122Z,22.17
2017-12-11T20:52:24.557Z,22.10
2017-12-11T20:54:55.272Z,23.37
2017-12-11T20:57:25.717Z,21.07
2017-12-11T20:59:56.303Z,23.37
2017-12-11T21:02:26.757Z,23.30
2017-12-11T21:04:57.213Z,24.17
2017-12-11T21:07:27.968Z,22.87
2017-12-11T21:09:59.212Z,23.13
2017-12-11T21:12:30.458Z,22.50
2017-12-11T21:15:01.678Z,22.90
2017-12-11T21:17:32.144Z,22.90
2017-12-11T21:20:03.788Z,21.90
2017-12-11T21:22:35.033Z,24.53
2017-12-11T21:25:05.811Z,23.37
2017-12-11T21:27:36.337Z,23.63
2017-12-11T21:30:06.870Z,24.60
2017-12-11T21:32:37.332Z,23.60
2017-12-11T21:35:07.773Z,23.67
2017-12-11T21:37:39.290Z,20.13
2017-12-11T21:40:09.831Z,22.50
2017-12-11T21:42:40.298Z,24.43
2017-12-11T21:45:11.543Z,23.00
2017-12-11T21:47:42.795Z,22.67
2017-12-11T21:50:13.409Z,22.63
2017-12-11T21:52:44.695Z,21.97
2017-12-11T21:55:15.518Z,21.77
2017-12-11T21:57:46.003Z,25.40
2017-12-11T22:00:20.109Z,22.77
2017-12-11T22:02:51.562Z,21.77
2017-12-11T22:05:22.012Z,22.93
2017-12-11T22:07:53.520Z,23.40
2017-12-11T22:10:24.012Z,23.80
2017-12-11T22:12:54.467Z,21.90
2017-12-11T22:15:24.906Z,22.20
2017-12-11T22:17:55.346Z,24.00
2017-12-11T22:20:25.800Z,22.17
2017-12-11T22:22:57.052Z,23.97
2017-12-11T22:25:28.456Z,23.67
2017-12-11T22:27:58.934Z,21.67
2017-12-11T22:30:29.422Z,23.03
2017-12-11T22:32:59.932Z,23.23
2017-12-11T22:35:31.136Z,22.60
2017-12-11T22:38:02.079Z,23.30
2017-12-11T22:40:32.560Z,23.03
2017-12-11T22:43:03.414Z,22.93
2017-12-11T22:45:38.768Z,23.30
2017-12-11T22:48:09.504Z,21.60
2017-12-11T22:50:40.755Z,22.33
2017-12-11T22:53:11.961Z,22.80
2017-12-11T22:55:42.804Z,22.90
2017-12-11T22:58:13.270Z,22.17
2017-12-11T23:00:44.529Z,23.33
2017-12-11T23:03:15.053Z,23.73
2017-12-11T23:05:45.518Z,23.60
2017-12-11T23:08:15.988Z,23.37
2017-12-11T23:10:47.253Z,23.50
2017-12-11T23:13:18.106Z,22.70
2017-12-11T23:15:48.560Z,22.57
2017-12-11T23:18:19.236Z,23.17
2017-12-11T23:20:50.558Z,23.47
2017-12-11T23:23:22.044Z,23.73
2017-12-11T23:25:53.679Z,21.63
2017-12-11T23:28:25.085Z,20.63
2017-12-11T23:30:56.592Z,21.87
2017-12-11T23:33:27.409Z,23.60
2017-12-11T23:35:58.057Z,22.50
2017-12-11T23:38:29.774Z,22.50
2017-12-11T23:41:00.241Z,21.83
2017-12-11T23:43:31.806Z,24.70
2017-12-11T23:46:03.033Z,22.37
2017-12-11T23:48:34.237Z,24.50
2017-12-11T23:51:04.686Z,22.30
2017-12-11T23:53:35.151Z,24.27
2017-12-11T23:56:05.847Z,22.50
2017-12-11T23:58:36.322Z,23.40
